sensor_id;sensor_type;location;lat;lon;timestamp;P1;durP1;ratioP1;P2;durP2;ratioP2
5137;SDS011;53959;53.626;11.410;2023-01-05T00:01:35;14.20;;;3.03;;
5137;SDS011;53959;53.626;11.410;2023-01-05T00:04:01;15.77;;;2.60;;
5137;SDS011;53959;53.626;11.410;2023-01-05T00:06:27;19.13;;;3.03;;
5137;SDS011;53959;53.626;11.410;2023-01-05T00:08:55;22.03;;;2.93;;
5137;SDS011;53959;53.626;11.410;2023-01-05T00:11:23;15.60;;;2.43;;
5137;SDS011;53959;53.626;11.410;2023-01-05T00:14:28;23.30;;;3.37;;
5137;SDS011;53959;53.626;11.410;2023-01-05T00:17:16;13.97;;;2.43;;
5137;SDS011;53959;53.626;11.410;2023-01-05T00:20:02;12.43;;;3.00;;
5137;SDS011;53959;53.626;11.410;2023-01-05T00:22:51;16.10;;;2.20;;
5137;SDS011;53959;53.626;11.410;2023-01-05T00:25:19;19.27;;;2.60;;
5137;SDS011;53959;53.626;11.410;2023-01-05T00:27:46;22.57;;;2.67;;
5137;SDS011;53959;53.626;11.410;2023-01-05T00:30:15;17.20;;;2.10;;
5137;SDS011;53959;53.626;11.410;2023-01-05T00:32:43;15.63;;;2.10;;
5137;SDS011;53959;53.626;11.410;2023-01-05T00:35:09;19.40;;;2.23;;
5137;SDS011;53959;53.626;11.410;2023-01-05T00:37:36;17.83;;;2.83;;
5137;SDS011;53959;53.626;11.410;2023-01-05T00:40:06;11.60;;;2.33;;
5137;SDS011;53959;53.626;11.410;2023-01-05T00:42:33;16.57;;;3.33;;
5137;SDS011;53959;53.626;11.410;2023-01-05T00:44:58;14.27;;;2.20;;
5137;SDS011;53959;53.626;11.410;2023-01-05T00:47:24;12.70;;;2.57;;
5137;SDS011;53959;53.626;11.410;2023-01-05T00:49:49;17.27;;;1.83;;
5137;SDS011;53959;53.626;11.410;2023-01-05T00:52:15;15.33;;;2.30;;
5137;SDS011;53959;53.626;11.410;2023-01-05T00:54:41;8.03;;;2.27;;
5137;SDS011;53959;53.626;11.410;2023-01-05T00:57:08;24.47;;;2.37;;
5137;SDS011;53959;53.626;11.410;2023-01-05T00:59:35;9.47;;;2.50;;
5137;SDS011;53959;53.626;11.410;2023-01-05T01:02:00;10.40;;;1.90;;
5137;SDS011;53959;53.626;11.410;2023-01-05T01:04:26;18.93;;;3.70;;
5137;SDS011;53959;53.626;11.410;2023-01-05T01:06:51;18.20;;;2.70;;
5137;SDS011;53959;53.626;11.410;2023-01-05T01:09:18;11.30;;;1.77;;
5137;SDS011;53959;53.626;11.410;2023-01-05T01:11:44;13.00;;;2.40;;
5137;SDS011;53959;53.626;11.410;2023-01-05T01:14:09;19.33;;;2.80;;
5137;SDS011;53959;53.626;11.410;2023-01-05T01:16:37;14.70;;;2.87;;
5137;SDS011;53959;53.626;11.410;2023-01-05T01:19:04;29.47;;;3.03;;
5137;SDS011;53959;53.626;11.410;2023-01-05T01:21:29;20.47;;;2.87;;
5137;SDS011;53959;53.626;11.410;2023-01-05T01:23:55;19.23;;;2.80;;
5137;SDS011;53959;53.626;11.410;2023-01-05T01:26:20;16.03;;;3.07;;
5137;SDS011;53959;53.626;11.410;2023-01-05T01:28:46;16.03;;;2.47;;
5137;SDS011;53959;53.626;11.410;2023-01-05T01:31:12;21.93;;;2.83;;
5137;SDS011;53959;53.626;11.410;2023-01-05T01:33:38;14.47;;;2.37;;
5137;SDS011;53959;53.626;11.410;2023-01-05T01:36:04;14.13;;;1.90;;
5137;SDS011;53959;53.626;11.410;2023-01-05T01:38:30;19.03;;;2.90;;
5137;SDS011;53959;53.626;11.410;2023-01-05T01:40:56;17.13;;;2.87;;
5137;SDS011;53959;53.626;11.410;2023-01-05T01:46:10;12.57;;;2.30;;
5137;SDS011;53959;53.626;11.410;2023-01-05T01:48:38;9.23;;;2.07;;
5137;SDS011;53959;53.626;11.410;2023-01-05T01:51:09;12.27;;;1.90;;
5137;SDS011;53959;53.626;11.410;2023-01-05T01:53:43;15.70;;;2.53;;
5137;SDS011;53959;53.626;11.410;2023-01-05T01:56:13;14.50;;;3.07;;
5137;SDS011;53959;53.626;11.410;2023-01-05T01:58:42;20.10;;;2.50;;
5137;SDS011;53959;53.626;11.410;2023-01-05T02:01:09;14.20;;;2.80;;
5137;SDS011;53959;53.626;11.410;2023-01-05T02:03:35;15.77;;;2.47;;
5137;SDS011;53959;53.626;11.410;2023-01-05T02:06:01;22.07;;;2.43;;
5137;SDS011;53959;53.626;11.410;2023-01-05T02:08:27;12.93;;;2.80;;
5137;SDS011;53959;53.626;11.410;2023-01-05T02:11:16;19.37;;;2.80;;
5137;SDS011;53959;53.626;11.410;2023-01-05T02:14:05;15.97;;;2.60;;
5137;SDS011;53959;53.626;11.410;2023-01-05T02:19:34;9.17;;;2.50;;
5137;SDS011;53959;53.626;11.410;2023-01-05T02:23:13;19.87;;;2.80;;
5137;SDS011;53959;53.626;11.410;2023-01-05T02:31:11;19.17;;;2.23;;
5137;SDS011;53959;53.626;11.410;2023-01-05T02:36:46;15.03;;;2.07;;
5137;SDS011;53959;53.626;11.410;2023-01-05T02:39:18;15.50;;;2.57;;
5137;SDS011;53959;53.626;11.410;2023-01-05T02:44:27;23.23;;;3.10;;
5137;SDS011;53959;53.626;11.410;2023-01-05T02:49:48;18.40;;;2.23;;
5137;SDS011;53959;53.626;11.410;2023-01-05T02:52:20;23.20;;;2.60;;
5137;SDS011;53959;53.626;11.410;2023-01-05T02:54:47;14.20;;;2.97;;
5137;SDS011;53959;53.626;11.410;2023-01-05T02:57:20;20.23;;;1.93;;
5137;SDS011;53959;53.626;11.410;2023-01-05T03:00:34;14.73;;;2.13;;
5137;SDS011;53959;53.626;11.410;2023-01-05T03:03:08;25.23;;;3.20;;
5137;SDS011;53959;53.626;11.410;2023-01-05T03:05:47;22.63;;;2.77;;
5137;SDS011;53959;53.626;11.410;2023-01-05T03:08:17;14.57;;;3.30;;
5137;SDS011;53959;53.626;11.410;2023-01-05T03:10:53;23.60;;;3.30;;
5137;SDS011;53959;53.626;11.410;2023-01-05T03:13:58;18.53;;;2.20;;
5137;SDS011;53959;53.626;11.410;2023-01-05T03:16:32;14.03;;;2.57;;
5137;SDS011;53959;53.626;11.410;2023-01-05T03:19:00;21.53;;;3.30;;
5137;SDS011;53959;53.626;11.410;2023-01-05T03:21:49;12.03;;;2.10;;
5137;SDS011;53959;53.626;11.410;2023-01-05T03:24:35;23.37;;;3.40;;
5137;SDS011;53959;53.626;11.410;2023-01-05T03:27:21;22.43;;;3.77;;
5137;SDS011;53959;53.626;11.410;2023-01-05T03:30:06;7.90;;;2.13;;
5137;SDS011;53959;53.626;11.410;2023-01-05T03:32:54;11.60;;;2.00;;
5137;SDS011;53959;53.626;11.410;2023-01-05T03:35:49;26.20;;;3.50;;
5137;SDS011;53959;53.626;11.410;2023-01-05T03:38:22;25.47;;;3.10;;
5137;SDS011;53959;53.626;11.410;2023-01-05T03:41:06;18.40;;;2.43;;
5137;SDS011;53959;53.626;11.410;2023-01-05T03:43:37;16.00;;;2.13;;
5137;SDS011;53959;53.626;11.410;2023-01-05T03:46:10;18.60;;;2.00;;
5137;SDS011;53959;53.626;11.410;2023-01-05T03:48:39;18.13;;;1.83;;
5137;SDS011;53959;53.626;11.410;2023-01-05T03:51:05;20.90;;;2.40;;
5137;SDS011;53959;53.626;11.410;2023-01-05T03:53:31;16.70;;;1.47;;
5137;SDS011;53959;53.626;11.410;2023-01-05T03:55:57;10.37;;;1.63;;
5137;SDS011;53959;53.626;11.410;2023-01-05T03:58:22;21.43;;;2.13;;
5137;SDS011;53959;53.626;11.410;2023-01-05T04:00:48;10.47;;;2.63;;
5137;SDS011;53959;53.626;11.410;2023-01-05T04:03:13;12.00;;;1.53;;
5137;SDS011;53959;53.626;11.410;2023-01-05T04:05:39;16.63;;;2.03;;
5137;SDS011;53959;53.626;11.410;2023-01-05T04:08:04;13.20;;;1.97;;
5137;SDS011;53959;53.626;11.410;2023-01-05T04:10:30;13.80;;;2.33;;
5137;SDS011;53959;53.626;11.410;2023-01-05T04:12:56;11.93;;;1.93;;
5137;SDS011;53959;53.626;11.410;2023-01-05T04:15:21;11.83;;;1.80;;
5137;SDS011;53959;53.626;11.410;2023-01-05T04:17:47;12.63;;;1.70;;
5137;SDS011;53959;53.626;11.410;2023-01-05T04:20:12;7.90;;;1.60;;
5137;SDS011;53959;53.626;11.410;2023-01-05T04:22:38;14.33;;;1.50;;
5137;SDS011;53959;53.626;11.410;2023-01-05T04:25:04;7.37;;;1.47;;
5137;SDS011;53959;53.626;11.410;2023-01-05T04:27:30;14.43;;;2.00;;
5137;SDS011;53959;53.626;11.410;2023-01-05T04:29:55;9.50;;;1.93;;
5137;SDS011;53959;53.626;11.410;2023-01-05T04:32:21;7.70;;;1.50;;
5137;SDS011;53959;53.626;11.410;2023-01-05T04:34:46;7.87;;;1.43;;
5137;SDS011;53959;53.626;11.410;2023-01-05T04:37:12;12.23;;;1.57;;
5137;SDS011;53959;53.626;11.410;2023-01-05T04:39:37;8.43;;;1.43;;
5137;SDS011;53959;53.626;11.410;2023-01-05T04:42:03;34.90;;;2.80;;
5137;SDS011;53959;53.626;11.410;2023-01-05T04:44:28;21.07;;;2.50;;
5137;SDS011;53959;53.626;11.410;2023-01-05T04:46:54;7.80;;;1.50;;
5137;SDS011;53959;53.626;11.410;2023-01-05T04:49:19;10.80;;;2.30;;
5137;SDS011;53959;53.626;11.410;2023-01-05T04:51:45;11.40;;;2.00;;
5137;SDS011;53959;53.626;11.410;2023-01-05T04:54:10;9.53;;;1.50;;
5137;SDS011;53959;53.626;11.410;2023-01-05T04:56:36;13.17;;;1.77;;
5137;SDS011;53959;53.626;11.410;2023-01-05T04:59:01;16.80;;;1.63;;
5137;SDS011;53959;53.626;11.410;2023-01-05T05:01:27;23.93;;;1.87;;
5137;SDS011;53959;53.626;11.410;2023-01-05T05:03:52;11.97;;;1.57;;
5137;SDS011;53959;53.626;11.410;2023-01-05T05:06:18;12.30;;;1.87;;
5137;SDS011;53959;53.626;11.410;2023-01-05T05:08:44;14.57;;;3.27;;
5137;SDS011;53959;53.626;11.410;2023-01-05T05:11:09;9.30;;;2.07;;
5137;SDS011;53959;53.626;11.410;2023-01-05T05:13:35;10.30;;;1.80;;
5137;SDS011;53959;53.626;11.410;2023-01-05T05:16:00;5.57;;;1.27;;
5137;SDS011;53959;53.626;11.410;2023-01-05T05:18:26;6.20;;;1.63;;
5137;SDS011;53959;53.626;11.410;2023-01-05T05:20:51;14.07;;;2.00;;
5137;SDS011;53959;53.626;11.410;2023-01-05T05:23:17;21.83;;;2.00;;
5137;SDS011;53959;53.626;11.410;2023-01-05T05:25:43;7.10;;;1.30;;
5137;SDS011;53959;53.626;11.410;2023-01-05T05:28:09;9.47;;;1.70;;
5137;SDS011;53959;53.626;11.410;2023-01-05T05:30:36;15.93;;;1.30;;
5137;SDS011;53959;53.626;11.410;2023-01-05T05:33:02;14.73;;;1.43;;
5137;SDS011;53959;53.626;11.410;2023-01-05T05:35:27;9.43;;;1.43;;
5137;SDS011;53959;53.626;11.410;2023-01-05T05:37:53;18.80;;;2.30;;
5137;SDS011;53959;53.626;11.410;2023-01-05T05:40:18;15.40;;;1.83;;
5137;SDS011;53959;53.626;11.410;2023-01-05T05:42:44;22.77;;;2.47;;
5137;SDS011;53959;53.626;11.410;2023-01-05T05:45:09;17.03;;;2.70;;
5137;SDS011;53959;53.626;11.410;2023-01-05T05:47:35;6.93;;;1.97;;
5137;SDS011;53959;53.626;11.410;2023-01-05T05:50:01;7.97;;;1.50;;
5137;SDS011;53959;53.626;11.410;2023-01-05T05:52:26;7.33;;;1.43;;
5137;SDS011;53959;53.626;11.410;2023-01-05T05:54:52;24.07;;;1.67;;
5137;SDS011;53959;53.626;11.410;2023-01-05T05:57:17;7.27;;;3.10;;
5137;SDS011;53959;53.626;11.410;2023-01-05T05:59:43;16.97;;;2.00;;
5137;SDS011;53959;53.626;11.410;2023-01-05T06:02:08;10.50;;;2.00;;
5137;SDS011;53959;53.626;11.410;2023-01-05T06:04:34;14.40;;;1.90;;
5137;SDS011;53959;53.626;11.410;2023-01-05T06:07:00;8.93;;;1.97;;
5137;SDS011;53959;53.626;11.410;2023-01-05T06:09:25;8.47;;;1.50;;
5137;SDS011;53959;53.626;11.410;2023-01-05T06:11:51;5.83;;;1.23;;
5137;SDS011;53959;53.626;11.410;2023-01-05T06:14:16;12.53;;;2.47;;
5137;SDS011;53959;53.626;11.410;2023-01-05T06:16:42;9.67;;;1.50;;
5137;SDS011;53959;53.626;11.410;2023-01-05T06:19:09;8.80;;;1.80;;
5137;SDS011;53959;53.626;11.410;2023-01-05T06:21:35;9.30;;;1.50;;
5137;SDS011;53959;53.626;11.410;2023-01-05T06:24:00;10.60;;;1.43;;
5137;SDS011;53959;53.626;11.410;2023-01-05T06:26:26;16.00;;;2.30;;
5137;SDS011;53959;53.626;11.410;2023-01-05T06:28:51;7.27;;;1.30;;
5137;SDS011;53959;53.626;11.410;2023-01-05T06:31:17;10.30;;;1.63;;
5137;SDS011;53959;53.626;11.410;2023-01-05T06:33:42;10.33;;;1.70;;
5137;SDS011;53959;53.626;11.410;2023-01-05T06:36:08;9.00;;;1.80;;
5137;SDS011;53959;53.626;11.410;2023-01-05T06:38:33;9.80;;;1.67;;
5137;SDS011;53959;53.626;11.410;2023-01-05T06:40:59;5.03;;;1.50;;
5137;SDS011;53959;53.626;11.410;2023-01-05T06:43:24;10.30;;;1.17;;
5137;SDS011;53959;53.626;11.410;2023-01-05T06:45:50;6.37;;;2.07;;
5137;SDS011;53959;53.626;11.410;2023-01-05T06:48:16;11.67;;;1.80;;
5137;SDS011;53959;53.626;11.410;2023-01-05T06:50:42;11.50;;;2.13;;
5137;SDS011;53959;53.626;11.410;2023-01-05T06:53:07;10.47;;;1.63;;
5137;SDS011;53959;53.626;11.410;2023-01-05T06:55:33;4.83;;;1.00;;
5137;SDS011;53959;53.626;11.410;2023-01-05T06:57:59;13.03;;;1.90;;
5137;SDS011;53959;53.626;11.410;2023-01-05T07:00:25;17.17;;;1.70;;
5137;SDS011;53959;53.626;11.410;2023-01-05T07:02:50;10.03;;;1.40;;
5137;SDS011;53959;53.626;11.410;2023-01-05T07:05:16;10.23;;;2.27;;
5137;SDS011;53959;53.626;11.410;2023-01-05T07:07:41;8.57;;;1.90;;
5137;SDS011;53959;53.626;11.410;2023-01-05T07:10:07;20.37;;;2.17;;
5137;SDS011;53959;53.626;11.410;2023-01-05T07:12:33;12.07;;;1.87;;
5137;SDS011;53959;53.626;11.410;2023-01-05T07:14:59;20.67;;;2.47;;
5137;SDS011;53959;53.626;11.410;2023-01-05T07:17:24;12.53;;;1.73;;
5137;SDS011;53959;53.626;11.410;2023-01-05T07:19:50;11.07;;;1.63;;
5137;SDS011;53959;53.626;11.410;2023-01-05T07:22:15;21.67;;;2.20;;
5137;SDS011;53959;53.626;11.410;2023-01-05T07:24:41;10.17;;;2.67;;
5137;SDS011;53959;53.626;11.410;2023-01-05T07:27:06;8.70;;;1.60;;
5137;SDS011;53959;53.626;11.410;2023-01-05T07:29:32;3.57;;;1.20;;
5137;SDS011;53959;53.626;11.410;2023-01-05T07:31:57;14.77;;;1.90;;
5137;SDS011;53959;53.626;11.410;2023-01-05T07:34:23;14.50;;;1.90;;
5137;SDS011;53959;53.626;11.410;2023-01-05T07:36:48;10.33;;;2.03;;
5137;SDS011;53959;53.626;11.410;2023-01-05T07:39:14;10.77;;;1.30;;
5137;SDS011;53959;53.626;11.410;2023-01-05T07:41:40;8.63;;;2.10;;
5137;SDS011;53959;53.626;11.410;2023-01-05T07:44:06;11.87;;;1.50;;
5137;SDS011;53959;53.626;11.410;2023-01-05T07:46:31;21.37;;;1.80;;
5137;SDS011;53959;53.626;11.410;2023-01-05T07:48:57;12.07;;;1.97;;
5137;SDS011;53959;53.626;11.410;2023-01-05T07:51:23;8.27;;;1.53;;
5137;SDS011;53959;53.626;11.410;2023-01-05T07:53:49;19.07;;;1.57;;
5137;SDS011;53959;53.626;11.410;2023-01-05T07:56:14;5.80;;;2.20;;
5137;SDS011;53959;53.626;11.410;2023-01-05T07:58:40;15.67;;;1.80;;
5137;SDS011;53959;53.626;11.410;2023-01-05T08:01:07;12.30;;;2.13;;
5137;SDS011;53959;53.626;11.410;2023-01-05T08:03:35;11.80;;;2.27;;
5137;SDS011;53959;53.626;11.410;2023-01-05T08:06:10;22.73;;;3.30;;
5137;SDS011;53959;53.626;11.410;2023-01-05T08:08:37;15.37;;;2.97;;
5137;SDS011;53959;53.626;11.410;2023-01-05T08:11:04;12.10;;;2.90;;
5137;SDS011;53959;53.626;11.410;2023-01-05T08:13:31;32.40;;;3.07;;
5137;SDS011;53959;53.626;11.410;2023-01-05T08:16:15;17.50;;;3.13;;
5137;SDS011;53959;53.626;11.410;2023-01-05T08:18:41;20.63;;;2.50;;
5137;SDS011;53959;53.626;11.410;2023-01-05T08:21:06;6.20;;;2.37;;
5137;SDS011;53959;53.626;11.410;2023-01-05T08:23:34;10.43;;;2.20;;
5137;SDS011;53959;53.626;11.410;2023-01-05T08:26:10;13.03;;;2.27;;
5137;SDS011;53959;53.626;11.410;2023-01-05T08:28:40;12.53;;;2.00;;
5137;SDS011;53959;53.626;11.410;2023-01-05T08:31:07;11.87;;;2.17;;
5137;SDS011;53959;53.626;11.410;2023-01-05T08:33:36;10.33;;;1.97;;
5137;SDS011;53959;53.626;11.410;2023-01-05T08:36:06;16.20;;;2.40;;
5137;SDS011;53959;53.626;11.410;2023-01-05T08:38:36;9.00;;;1.50;;
5137;SDS011;53959;53.626;11.410;2023-01-05T08:41:02;11.13;;;2.73;;
5137;SDS011;53959;53.626;11.410;2023-01-05T08:43:27;20.60;;;2.83;;
5137;SDS011;53959;53.626;11.410;2023-01-05T08:45:53;18.60;;;2.63;;
5137;SDS011;53959;53.626;11.410;2023-01-05T08:48:19;10.27;;;1.90;;
5137;SDS011;53959;53.626;11.410;2023-01-05T08:50:44;11.30;;;1.87;;
5137;SDS011;53959;53.626;11.410;2023-01-05T08:53:10;16.67;;;2.17;;
5137;SDS011;53959;53.626;11.410;2023-01-05T08:55:35;8.43;;;1.40;;
5137;SDS011;53959;53.626;11.410;2023-01-05T08:58:01;11.50;;;1.93;;
5137;SDS011;53959;53.626;11.410;2023-01-05T09:00:27;7.50;;;1.90;;
5137;SDS011;53959;53.626;11.410;2023-01-05T09:02:52;9.87;;;1.37;;
5137;SDS011;53959;53.626;11.410;2023-01-05T09:05:18;9.37;;;2.00;;
5137;SDS011;53959;53.626;11.410;2023-01-05T09:07:43;18.70;;;2.23;;
5137;SDS011;53959;53.626;11.410;2023-01-05T09:10:09;17.80;;;1.83;;
5137;SDS011;53959;53.626;11.410;2023-01-05T09:12:34;3.00;;;1.40;;
5137;SDS011;53959;53.626;11.410;2023-01-05T09:15:01;6.97;;;1.33;;
5137;SDS011;53959;53.626;11.410;2023-01-05T09:17:28;7.50;;;1.00;;
5137;SDS011;53959;53.626;11.410;2023-01-05T09:19:53;5.90;;;0.97;;
5137;SDS011;53959;53.626;11.410;2023-01-05T09:22:19;2.83;;;0.77;;
5137;SDS011;53959;53.626;11.410;2023-01-05T09:24:45;7.50;;;0.97;;
5137;SDS011;53959;53.626;11.410;2023-01-05T09:27:12;11.93;;;1.33;;
5137;SDS011;53959;53.626;11.410;2023-01-05T09:29:37;1.40;;;0.80;;
5137;SDS011;53959;53.626;11.410;2023-01-05T09:32:04;3.97;;;0.77;;
5137;SDS011;53959;53.626;11.410;2023-01-05T09:34:29;3.63;;;0.90;;
5137;SDS011;53959;53.626;11.410;2023-01-05T09:36:55;2.13;;;0.80;;
5137;SDS011;53959;53.626;11.410;2023-01-05T09:39:21;3.50;;;0.50;;
5137;SDS011;53959;53.626;11.410;2023-01-05T09:41:47;6.10;;;0.50;;
5137;SDS011;53959;53.626;11.410;2023-01-05T09:46:56;3.20;;;0.93;;
5137;SDS011;53959;53.626;11.410;2023-01-05T09:49:26;1.53;;;0.80;;
5137;SDS011;53959;53.626;11.410;2023-01-05T09:51:54;3.07;;;0.60;;
5137;SDS011;53959;53.626;11.410;2023-01-05T09:54:25;1.30;;;0.53;;
5137;SDS011;53959;53.626;11.410;2023-01-05T09:56:53;3.53;;;0.67;;
5137;SDS011;53959;53.626;11.410;2023-01-05T09:59:24;1.43;;;0.50;;
5137;SDS011;53959;53.626;11.410;2023-01-05T10:01:53;1.10;;;0.60;;
5137;SDS011;53959;53.626;11.410;2023-01-05T10:04:23;0.80;;;0.63;;
5137;SDS011;53959;53.626;11.410;2023-01-05T10:06:52;1.60;;;0.80;;
5137;SDS011;53959;53.626;11.410;2023-01-05T10:09:23;1.33;;;0.70;;
5137;SDS011;53959;53.626;11.410;2023-01-05T10:11:53;2.57;;;0.43;;
5137;SDS011;53959;53.626;11.410;2023-01-05T10:14:52;0.70;;;0.70;;
5137;SDS011;53959;53.626;11.410;2023-01-05T10:17:32;2.13;;;0.57;;
5137;SDS011;53959;53.626;11.410;2023-01-05T10:19:59;1.37;;;0.50;;
5137;SDS011;53959;53.626;11.410;2023-01-05T10:25:33;5.00;;;1.00;;
5137;SDS011;53959;53.626;11.410;2023-01-05T10:33:40;4.73;;;1.10;;
5137;SDS011;53959;53.626;11.410;2023-01-05T10:42:18;4.00;;;1.00;;
5137;SDS011;53959;53.626;11.410;2023-01-05T10:44:58;1.77;;;1.63;;
5137;SDS011;53959;53.626;11.410;2023-01-05T10:47:27;1.60;;;0.70;;
5137;SDS011;53959;53.626;11.410;2023-01-05T10:49:56;0.97;;;0.90;;
5137;SDS011;53959;53.626;11.410;2023-01-05T10:52:23;4.33;;;1.00;;
5137;SDS011;53959;53.626;11.410;2023-01-05T10:54:50;5.33;;;0.90;;
5137;SDS011;53959;53.626;11.410;2023-01-05T11:00:00;2.50;;;0.63;;
5137;SDS011;53959;53.626;11.410;2023-01-05T11:02:27;4.63;;;0.80;;
5137;SDS011;53959;53.626;11.410;2023-01-05T11:04:59;2.93;;;0.80;;
5137;SDS011;53959;53.626;11.410;2023-01-05T11:07:45;4.80;;;1.00;;
5137;SDS011;53959;53.626;11.410;2023-01-05T11:10:28;10.93;;;1.10;;
5137;SDS011;53959;53.626;11.410;2023-01-05T11:12:59;4.67;;;1.10;;
5137;SDS011;53959;53.626;11.410;2023-01-05T11:15:28;4.83;;;1.30;;
5137;SDS011;53959;53.626;11.410;2023-01-05T11:17:58;3.23;;;1.00;;
5137;SDS011;53959;53.626;11.410;2023-01-05T11:20:24;5.20;;;1.07;;
5137;SDS011;53959;53.626;11.410;2023-01-05T11:22:52;3.50;;;1.30;;
5137;SDS011;53959;53.626;11.410;2023-01-05T11:25:23;4.03;;;0.97;;
5137;SDS011;53959;53.626;11.410;2023-01-05T11:28:25;6.33;;;1.00;;
5137;SDS011;53959;53.626;11.410;2023-01-05T11:30:46;2.93;;;0.90;;
5137;SDS011;53959;53.626;11.410;2023-01-05T11:33:24;5.33;;;0.90;;
5137;SDS011;53959;53.626;11.410;2023-01-05T11:35:52;4.10;;;1.13;;
5137;SDS011;53959;53.626;11.410;2023-01-05T11:38:20;1.07;;;0.90;;
5137;SDS011;53959;53.626;11.410;2023-01-05T11:40:49;1.23;;;1.00;;
5137;SDS011;53959;53.626;11.410;2023-01-05T11:43:14;1.27;;;0.70;;
5137;SDS011;53959;53.626;11.410;2023-01-05T11:45:50;4.00;;;1.03;;
5137;SDS011;53959;53.626;11.410;2023-01-05T11:48:19;3.50;;;0.73;;
5137;SDS011;53959;53.626;11.410;2023-01-05T11:50:51;1.60;;;0.90;;
5137;SDS011;53959;53.626;11.410;2023-01-05T11:56:17;1.63;;;1.10;;
5137;SDS011;53959;53.626;11.410;2023-01-05T11:58:46;3.87;;;1.30;;
5137;SDS011;53959;53.626;11.410;2023-01-05T12:04:37;3.40;;;0.83;;
5137;SDS011;53959;53.626;11.410;2023-01-05T12:15:50;3.80;;;1.60;;
5137;SDS011;53959;53.626;11.410;2023-01-05T12:21:21;6.77;;;1.40;;
5137;SDS011;53959;53.626;11.410;2023-01-05T12:26:45;4.43;;;1.20;;
5137;SDS011;53959;53.626;11.410;2023-01-05T12:32:35;5.63;;;1.37;;
5137;SDS011;53959;53.626;11.410;2023-01-05T12:49:14;5.30;;;1.60;;
5137;SDS011;53959;53.626;11.410;2023-01-05T12:51:45;5.10;;;1.20;;
5137;SDS011;53959;53.626;11.410;2023-01-05T12:54:43;2.33;;;0.93;;
5137;SDS011;53959;53.626;11.410;2023-01-05T12:57:16;1.93;;;0.70;;
5137;SDS011;53959;53.626;11.410;2023-01-05T12:59:51;8.47;;;1.40;;
5137;SDS011;53959;53.626;11.410;2023-01-05T13:02:34;6.43;;;1.20;;
5137;SDS011;53959;53.626;11.410;2023-01-05T13:05:03;23.67;;;2.30;;
5137;SDS011;53959;53.626;11.410;2023-01-05T13:08:08;4.97;;;1.10;;
5137;SDS011;53959;53.626;11.410;2023-01-05T13:13:16;2.50;;;1.40;;
5137;SDS011;53959;53.626;11.410;2023-01-05T13:18:47;5.07;;;1.30;;
5137;SDS011;53959;53.626;11.410;2023-01-05T13:21:20;3.13;;;1.60;;
5137;SDS011;53959;53.626;11.410;2023-01-05T13:23:50;7.83;;;2.10;;
5137;SDS011;53959;53.626;11.410;2023-01-05T13:26:20;9.63;;;1.57;;
5137;SDS011;53959;53.626;11.410;2023-01-05T13:28:46;4.03;;;1.40;;
5137;SDS011;53959;53.626;11.410;2023-01-05T13:33:48;5.57;;;0.97;;
5137;SDS011;53959;53.626;11.410;2023-01-05T13:36:59;3.90;;;1.10;;
5137;SDS011;53959;53.626;11.410;2023-01-05T13:51:05;2.93;;;1.17;;
5137;SDS011;53959;53.626;11.410;2023-01-05T13:53:53;8.83;;;0.90;;
5137;SDS011;53959;53.626;11.410;2023-01-05T13:56:21;7.70;;;1.63;;
5137;SDS011;53959;53.626;11.410;2023-01-05T14:01:33;3.07;;;1.20;;
5137;SDS011;53959;53.626;11.410;2023-01-05T14:04:02;3.90;;;1.10;;
5137;SDS011;53959;53.626;11.410;2023-01-05T14:06:33;4.53;;;1.27;;
5137;SDS011;53959;53.626;11.410;2023-01-05T14:09:11;10.63;;;1.67;;
5137;SDS011;53959;53.626;11.410;2023-01-05T14:20:33;10.20;;;1.47;;
5137;SDS011;53959;53.626;11.410;2023-01-05T14:31:39;5.37;;;2.07;;
5137;SDS011;53959;53.626;11.410;2023-01-05T14:33:52;2.73;;;1.73;;
5137;SDS011;53959;53.626;11.410;2023-01-05T14:36:25;3.00;;;0.90;;
5137;SDS011;53959;53.626;11.410;2023-01-05T14:38:53;6.33;;;1.40;;
5137;SDS011;53959;53.626;11.410;2023-01-05T14:41:22;6.40;;;1.70;;
5137;SDS011;53959;53.626;11.410;2023-01-05T14:44:32;9.07;;;1.53;;
5137;SDS011;53959;53.626;11.410;2023-01-05T14:46:51;2.77;;;1.40;;
5137;SDS011;53959;53.626;11.410;2023-01-05T14:49:19;2.80;;;1.63;;
5137;SDS011;53959;53.626;11.410;2023-01-05T14:51:53;3.70;;;1.37;;
5137;SDS011;53959;53.626;11.410;2023-01-05T14:55:07;2.83;;;1.20;;
5137;SDS011;53959;53.626;11.410;2023-01-05T15:00:10;5.80;;;1.07;;
5137;SDS011;53959;53.626;11.410;2023-01-05T15:02:55;10.13;;;1.47;;
5137;SDS011;53959;53.626;11.410;2023-01-05T15:05:28;6.77;;;0.93;;
5137;SDS011;53959;53.626;11.410;2023-01-05T15:07:58;6.00;;;1.50;;
5137;SDS011;53959;53.626;11.410;2023-01-05T15:10:35;7.43;;;1.87;;
5137;SDS011;53959;53.626;11.410;2023-01-05T15:27:35;3.83;;;1.77;;
5137;SDS011;53959;53.626;11.410;2023-01-05T15:30:34;6.57;;;1.53;;
5137;SDS011;53959;53.626;11.410;2023-01-05T15:33:39;3.57;;;1.33;;
5137;SDS011;53959;53.626;11.410;2023-01-05T15:36:11;12.40;;;1.03;;
5137;SDS011;53959;53.626;11.410;2023-01-05T15:38:45;12.50;;;1.50;;
5137;SDS011;53959;53.626;11.410;2023-01-05T15:41:11;5.80;;;1.33;;
5137;SDS011;53959;53.626;11.410;2023-01-05T15:43:38;8.30;;;1.20;;
5137;SDS011;53959;53.626;11.410;2023-01-05T15:46:06;2.30;;;1.10;;
5137;SDS011;53959;53.626;11.410;2023-01-05T15:48:36;6.93;;;1.40;;
5137;SDS011;53959;53.626;11.410;2023-01-05T15:51:06;3.37;;;1.27;;
5137;SDS011;53959;53.626;11.410;2023-01-05T15:53:33;7.97;;;1.63;;
5137;SDS011;53959;53.626;11.410;2023-01-05T15:56:02;2.87;;;1.23;;
5137;SDS011;53959;53.626;11.410;2023-01-05T15:58:29;8.63;;;1.80;;
5137;SDS011;53959;53.626;11.410;2023-01-05T16:01:01;1.70;;;0.80;;
5137;SDS011;53959;53.626;11.410;2023-01-05T16:03:30;4.47;;;1.67;;
5137;SDS011;53959;53.626;11.410;2023-01-05T16:05:59;3.07;;;1.10;;
5137;SDS011;53959;53.626;11.410;2023-01-05T16:08:32;6.93;;;1.30;;
5137;SDS011;53959;53.626;11.410;2023-01-05T16:11:00;6.50;;;1.40;;
5137;SDS011;53959;53.626;11.410;2023-01-05T16:13:44;3.37;;;1.20;;
5137;SDS011;53959;53.626;11.410;2023-01-05T16:16:37;2.23;;;1.00;;
5137;SDS011;53959;53.626;11.410;2023-01-05T16:19:07;4.17;;;1.00;;
5137;SDS011;53959;53.626;11.410;2023-01-05T16:24:32;2.47;;;1.00;;
5137;SDS011;53959;53.626;11.410;2023-01-05T16:27:02;7.67;;;1.50;;
5137;SDS011;53959;53.626;11.410;2023-01-05T16:29:34;2.37;;;1.10;;
5137;SDS011;53959;53.626;11.410;2023-01-05T16:51:44;10.30;;;1.60;;
5137;SDS011;53959;53.626;11.410;2023-01-05T16:54:13;4.20;;;1.87;;
5137;SDS011;53959;53.626;11.410;2023-01-05T16:56:59;3.57;;;1.33;;
5137;SDS011;53959;53.626;11.410;2023-01-05T16:59:34;8.20;;;1.53;;
5137;SDS011;53959;53.626;11.410;2023-01-05T17:02:28;8.50;;;1.50;;
5137;SDS011;53959;53.626;11.410;2023-01-05T17:05:07;12.40;;;1.77;;
5137;SDS011;53959;53.626;11.410;2023-01-05T17:07:35;2.70;;;1.30;;
5137;SDS011;53959;53.626;11.410;2023-01-05T17:10:03;8.50;;;1.67;;
5137;SDS011;53959;53.626;11.410;2023-01-05T17:12:30;4.97;;;1.43;;
5137;SDS011;53959;53.626;11.410;2023-01-05T17:14:57;12.13;;;1.90;;
5137;SDS011;53959;53.626;11.410;2023-01-05T17:17:26;4.53;;;1.60;;
5137;SDS011;53959;53.626;11.410;2023-01-05T17:19:51;6.33;;;1.70;;
5137;SDS011;53959;53.626;11.410;2023-01-05T17:22:18;2.40;;;1.50;;
5137;SDS011;53959;53.626;11.410;2023-01-05T17:24:44;6.17;;;1.73;;
5137;SDS011;53959;53.626;11.410;2023-01-05T17:27:09;4.20;;;1.40;;
5137;SDS011;53959;53.626;11.410;2023-01-05T17:29:35;2.90;;;1.40;;
5137;SDS011;53959;53.626;11.410;2023-01-05T17:32:01;4.27;;;1.90;;
5137;SDS011;53959;53.626;11.410;2023-01-05T17:34:27;5.83;;;1.47;;
5137;SDS011;53959;53.626;11.410;2023-01-05T17:36:54;2.93;;;1.83;;